Time;durP1;ratioP1;P1;durP2;ratioP2;P2;SDS_P1;SDS_P2;PMS_P1;PMS_P2;Temp;Humidity;BMP_temperature;BMP_pressure;BME280_temperature;BME280_humidity;BME280_pressure;Samples;Min_cycle;Max_cycle;Signal;HPM_P1;HPM_P2
2021/01/20 00:02:11;;;;;;;20.35;11.63;;;;;;;3.29;66.20;98399.63;263257;1092;114579;-71
2021/01/20 00:07:30;;;;;;;20.63;11.43;;;;;;;3.27;66.47;98410.22;262861;1092;114887;-70
2021/01/20 00:12:38;;;;;;;19.07;11.20;;;;;;;3.26;67.26;98423.42;263523;1090;115595;-70
2021/01/20 00:17:52;;;;;;;18.12;10.85;;;;;;;3.21;66.74;98420.14;263943;1092;115329;-72
2021/01/20 00:23:00;;;;;;;19.33;11.13;;;;;;;3.16;66.97;98425.61;263374;1090;115678;-73
2021/01/20 00:28:03;;;;;;;17.05;10.53;;;;;;;3.19;67.10;98419.34;264144;1090;114610;-70
2021/01/20 00:33:05;;;;;;;18.00;11.38;;;;;;;3.14;67.21;98416.92;264305;1090;114694;-78
2021/01/20 00:38:08;;;;;;;21.10;12.65;;;;;;;3.13;67.81;98419.62;264244;1090;114527;-71
2021/01/20 00:43:10;;;;;;;18.25;10.45;;;;;;;3.06;67.34;98416.40;264333;1091;114657;-79
2021/01/20 00:48:13;;;;;;;19.60;11.40;;;;;;;3.00;67.77;98414.87;264305;1092;114532;-78
2021/01/20 00:53:15;;;;;;;18.30;12.13;;;;;;;2.95;67.52;98415.97;264123;1091;114635;-78
2021/01/20 00:58:18;;;;;;;22.73;12.55;;;;;;;2.99;68.12;98423.68;263888;1090;115500;-79
2021/01/20 01:03:20;;;;;;;20.33;12.40;;;;;;;3.05;67.72;98418.14;264062;1091;114904;-67
2021/01/20 01:08:25;;;;;;;21.02;11.65;;;;;;;3.02;67.73;98423.55;264361;1090;114400;-67
2021/01/20 01:13:27;;;;;;;;;;;;;;;3.05;68.02;98428.66;264307;1092;114254;-70
2021/01/20 01:18:48;;;;;;;17.52;12.07;;;;;;;2.97;68.09;98422.87;264449;1090;102199;-66
2021/01/20 01:23:51;;;;;;;19.10;11.53;;;;;;;2.96;68.04;98423.80;263622;1090;115542;-66
2021/01/20 01:28:54;;;;;;;20.07;12.20;;;;;;;2.95;67.88;98422.07;264261;1092;114246;-67
2021/01/20 01:34:03;;;;;;;19.23;12.23;;;;;;;2.95;67.84;98421.22;264268;1092;115054;-66
2021/01/20 01:39:05;;;;;;;20.70;13.13;;;;;;;2.89;68.08;98418.84;264228;1090;115613;-66
2021/01/20 01:44:17;;;;;;;20.75;12.07;;;;;;;2.90;68.15;98415.31;264266;1092;117890;-69
2021/01/20 01:49:31;;;;;;;17.42;12.07;;;;;;;2.97;68.47;98414.14;264247;1091;114527;-70
2021/01/20 01:54:34;;;;;;;19.92;12.07;;;;;;;3.04;68.65;98412.97;264198;1092;114203;-67
2021/01/20 01:59:41;;;;;;;19.25;12.47;;;;;;;3.11;68.83;98416.20;263613;1092;114827;-73
2021/01/20 02:04:49;;;;;;;18.35;12.18;;;;;;;3.09;68.46;98426.75;264225;1092;114688;-72
2021/01/20 02:09:53;;;;;;;17.98;11.88;;;;;;;3.04;68.38;98421.70;264116;1092;114550;-72
2021/01/20 02:15:20;;;;;;;18.73;12.45;;;;;;;3.02;68.11;98426.19;264245;1090;114254;-69
2021/01/20 02:20:41;;;;;;;18.50;11.68;;;;;;;3.00;68.34;98421.91;264183;1092;114486;-69
2021/01/20 02:25:53;;;;;;;18.30;12.93;;;;;;;2.98;68.67;98421.09;264275;1092;114458;-73
2021/01/20 02:31:04;;;;;;;17.15;11.97;;;;;;;2.99;68.64;98423.68;264083;1092;114453;-74
2021/01/20 02:36:10;;;;;;;18.10;12.43;;;;;;;3.11;68.67;98429.34;264236;1092;114746;-83
2021/01/20 02:41:37;;;;;;;17.53;11.90;;;;;;;3.19;68.54;98424.59;263152;1092;115230;-77
2021/01/20 02:47:25;;;;;;;16.07;11.33;;;;;;;3.17;68.71;98434.34;262419;1093;115412;-78
2021/01/20 02:52:49;;;;;;;19.02;11.70;;;;;;;3.13;68.80;98424.88;264281;1092;114485;-78
2021/01/20 02:58:19;;;;;;;15.13;10.32;;;;;;;3.12;68.68;98429.27;264257;1092;114509;-79
2021/01/20 03:03:44;;;;;;;18.35;10.88;;;;;;;3.09;68.54;98424.13;263388;1093;114697;-83
2021/01/20 03:08:47;;;;;;;20.70;12.20;;;;;;;3.08;68.74;98422.42;263704;1092;114674;-81
2021/01/20 03:13:50;;;;;;;17.87;10.55;;;;;;;3.12;68.59;98428.41;262959;1093;115318;-80
2021/01/20 03:18:52;;;;;;;17.40;11.25;;;;;;;3.14;68.90;98424.80;264244;1092;114703;-83
2021/01/20 03:23:54;;;;;;;17.63;11.97;;;;;;;3.15;69.15;98429.14;263755;1091;114545;-83
2021/01/20 03:28:57;;;;;;;15.95;10.80;;;;;;;3.17;69.14;98423.83;263937;1093;114403;-78
2021/01/20 03:33:59;;;;;;;18.30;11.23;;;;;;;3.17;69.09;98426.45;263296;1092;114646;-82
2021/01/20 03:39:02;;;;;;;17.15;10.90;;;;;;;3.17;68.77;98427.31;264206;1092;114416;-79
2021/01/20 03:44:04;;;;;;;16.27;10.72;;;;;;;3.18;68.97;98428.16;264257;1093;114642;-79
2021/01/20 03:49:07;;;;;;;17.87;11.50;;;;;;;3.19;69.09;98429.86;262130;1092;114337;-80
2021/01/20 03:54:09;;;;;;;14.70;10.13;;;;;;;3.25;68.71;98429.61;264131;1092;114444;-79
2021/01/20 03:59:11;;;;;;;16.97;11.43;;;;;;;3.25;69.14;98425.20;263790;1092;114904;-83
2021/01/20 04:04:13;;;;;;;19.37;10.87;;;;;;;3.26;68.94;98424.30;260229;1093;114609;-78
2021/01/20 04:09:16;;;;;;;16.52;10.50;;;;;;;3.24;68.72;98427.91;262450;1092;114639;-80
2021/01/20 04:14:18;;;;;;;15.35;10.72;;;;;;;3.20;68.95;98437.70;263989;1092;114451;-82
2021/01/20 04:19:20;;;;;;;17.65;10.55;;;;;;;3.18;69.24;98438.67;263225;1092;114402;-80
2021/01/20 04:24:23;;;;;;;15.63;10.43;;;;;;;3.18;69.21;98436.05;263028;1092;114976;-81
2021/01/20 04:29:25;;;;;;;18.27;11.10;;;;;;;3.21;68.99;98435.92;264280;1092;114392;-79
2021/01/20 04:34:27;;;;;;;16.37;9.50;;;;;;;3.30;69.39;98432.91;262121;1092;114662;-79
2021/01/20 04:39:30;;;;;;;14.18;9.50;;;;;;;3.37;69.00;98436.14;264270;1093;114490;-80
2021/01/20 04:44:33;;;;;;;15.63;10.23;;;;;;;3.41;69.76;98435.94;264300;1092;114252;-81
2021/01/20 04:49:37;;;;;;;17.95;10.60;;;;;;;3.47;69.05;98437.45;264223;1092;114131;-80
2021/01/20 04:54:40;;;;;;;14.13;9.23;;;;;;;3.50;68.97;98425.02;264226;1092;114412;-77
2021/01/20 04:59:43;;;;;;;16.50;9.85;;;;;;;3.48;68.91;98428.63;262932;1092;114639;-82
2021/01/20 05:04:47;;;;;;;14.45;9.23;;;;;;;3.41;69.01;98435.08;264256;1092;115116;-83
2021/01/20 05:09:49;;;;;;;13.80;9.88;;;;;;;3.38;69.35;98430.80;263890;1093;114384;-85
2021/01/20 05:14:51;;;;;;;14.40;9.53;;;;;;;3.39;69.74;98436.91;264264;1092;114291;-84
2021/01/20 05:19:54;;;;;;;14.43;9.83;;;;;;;3.53;69.48;98440.67;262528;1092;114398;-88
2021/01/20 05:25:06;;;;;;;17.30;10.08;;;;;;;3.60;69.43;98438.64;264089;1092;115234;-83
2021/01/20 05:30:17;;;;;;;12.50;8.33;;;;;;;3.71;69.62;98435.53;261889;1093;115699;-83
2021/01/20 05:35:37;;;;;;;15.08;9.43;;;;;;;3.74;70.04;98444.14;263342;1093;115578;-79
2021/01/20 05:40:50;;;;;;;15.07;9.63;;;;;;;3.78;69.72;98447.50;263100;1093;114398;-85
2021/01/20 05:45:53;;;;;;;14.37;9.33;;;;;;;3.76;68.97;98446.69;262839;1092;114886;-79
2021/01/20 05:51:15;;;;;;;18.80;8.73;;;;;;;3.72;69.38;98445.13;261545;1091;114510;-83
2021/01/20 05:56:39;;;;;;;16.13;8.30;;;;;;;3.75;69.16;98447.63;262309;1091;114069;-85
2021/01/20 06:01:42;;;;;;;12.73;7.80;;;;;;;3.88;69.37;98451.42;260788;1092;114612;-80
2021/01/20 06:06:53;;;;;;;13.70;7.73;;;;;;;3.90;70.01;98448.71;262440;1093;115306;-80
2021/01/20 06:11:58;;;;;;;12.23;7.50;;;;;;;3.97;69.18;98452.78;260699;1092;115510;-79
2021/01/20 06:17:23;;;;;;;12.20;7.95;;;;;;;3.97;69.53;98466.83;261526;1092;114537;-83
2021/01/20 06:22:27;;;;;;;16.97;8.07;;;;;;;3.97;69.34;98477.35;262699;1092;115085;-81
2021/01/20 06:27:36;;;;;;;11.75;7.30;;;;;;;3.96;69.54;98478.25;264265;1093;114360;-79
2021/01/20 06:32:44;;;;;;;8.73;6.47;;;;;;;4.01;68.85;98470.17;264111;1092;114367;-82
2021/01/20 06:37:49;;;;;;;12.10;6.85;;;;;;;4.05;69.80;98479.64;264228;1093;114229;-82
2021/01/20 06:42:52;;;;;;;10.57;6.90;;;;;;;4.08;69.34;98482.13;264207;1093;114463;-82
2021/01/20 06:48:00;;;;;;;13.55;6.50;;;;;;;4.17;68.92;98486.97;264213;1092;114718;-79
2021/01/20 06:53:04;;;;;;;11.43;7.53;;;;;;;4.35;69.76;98494.95;262075;1092;114963;-83
2021/01/20 06:58:21;;;;;;;16.37;7.75;;;;;;;4.42;69.51;98489.36;263891;1093;115109;-80
2021/01/20 07:03:39;;;;;;;13.17;7.77;;;;;;;4.48;68.88;98502.26;262080;1092;114316;-78
2021/01/20 07:08:55;;;;;;;16.77;10.40;;;;;;;4.56;69.89;98493.14;264196;1093;114871;-79
2021/01/20 07:13:57;;;;;;;17.60;8.33;;;;;;;4.59;69.80;98493.85;264187;1093;114950;-79
2021/01/20 07:19:00;;;;;;;19.20;7.83;;;;;;;4.55;69.19;98494.05;263928;1092;114649;-79
2021/01/20 07:24:02;;;;;;;14.20;8.30;;;;;;;4.48;68.57;98504.89;264202;1092;114595;-78
2021/01/20 07:29:18;;;;;;;20.23;8.90;;;;;;;4.51;69.27;98515.26;264162;1092;114675;-79
2021/01/20 07:34:20;;;;;;;17.02;8.13;;;;;;;4.56;68.28;98517.70;264221;1093;114796;-78
2021/01/20 07:39:25;;;;;;;17.80;9.20;;;;;;;4.65;68.94;98529.58;263632;1092;114641;-78
2021/01/20 07:44:28;;;;;;;13.88;8.80;;;;;;;4.71;69.07;98524.88;264222;1092;114909;-79
2021/01/20 07:49:31;;;;;;;16.30;8.40;;;;;;;4.81;68.47;98540.28;264174;1091;114623;-79
2021/01/20 07:54:38;;;;;;;17.82;8.35;;;;;;;4.88;68.59;98539.06;264201;1092;114489;-78
2021/01/20 07:59:41;;;;;;;11.40;8.03;;;;;;;4.93;68.60;98539.72;264199;1092;114463;-79
2021/01/20 08:04:44;;;;;;;13.50;7.80;;;;;;;5.00;68.47;98545.55;264246;1091;114431;-80
2021/01/20 08:09:46;;;;;;;13.72;7.55;;;;;;;5.08;67.97;98551.31;261184;1093;114856;-80
2021/01/20 08:14:50;;;;;;;13.80;8.30;;;;;;;5.13;69.33;98542.27;264174;1093;114522;-81
2021/01/20 08:19:56;;;;;;;15.28;8.70;;;;;;;5.23;69.12;98534.77;264197;1093;115008;-77
2021/01/20 08:24:58;;;;;;;14.70;7.97;;;;;;;5.30;69.14;98544.09;263940;1092;114674;-78
2021/01/20 08:30:00;;;;;;;17.60;8.97;;;;;;;5.38;68.52;98546.34;263018;1092;114995;-80
2021/01/20 08:35:03;;;;;;;17.50;9.13;;;;;;;5.41;68.43;98549.69;263524;1092;114573;-80
2021/01/20 08:40:13;;;;;;;14.90;8.77;;;;;;;5.44;69.11;98538.13;264190;1093;114421;-79
2021/01/20 08:45:21;;;;;;;15.93;9.10;;;;;;;5.49;67.96;98538.74;264170;1092;114740;-80
2021/01/20 08:50:28;;;;;;;16.25;9.20;;;;;;;5.52;67.69;98541.23;264237;1092;114615;-80
2021/01/20 08:55:34;;;;;;;19.77;10.53;;;;;;;5.55;68.87;98553.43;264235;1092;115122;-79
2021/01/20 09:00:40;;;;;;;16.53;9.60;;;;;;;5.60;67.93;98551.41;264250;1093;114677;-79
2021/01/20 09:05:44;;;;;;;15.70;9.73;;;;;;;5.60;68.51;98560.17;264209;1093;114596;-81
2021/01/20 09:10:47;;;;;;;19.10;10.90;;;;;;;5.65;68.24;98571.38;264187;1092;114618;-81
2021/01/20 09:15:52;;;;;;;19.15;11.45;;;;;;;5.75;67.97;98566.49;264159;1092;114776;-81
2021/01/20 09:20:55;;;;;;;18.73;11.57;;;;;;;5.86;67.78;98555.38;263959;1092;115568;-80
2021/01/20 09:25:57;;;;;;;23.13;11.30;;;;;;;5.90;67.58;98559.58;263485;1092;115163;-79
2021/01/20 09:30:59;;;;;;;20.90;11.53;;;;;;;6.00;68.26;98571.41;264211;1092;115013;-78
2021/01/20 09:36:02;;;;;;;18.52;11.18;;;;;;;6.10;68.39;98558.59;264093;1092;114676;-81
2021/01/20 09:41:05;;;;;;;18.65;10.38;;;;;;;6.26;68.56;98550.73;264201;1092;114993;-78
2021/01/20 09:46:07;;;;;;;20.80;11.60;;;;;;;6.43;68.60;98548.05;264224;1091;114846;-85
2021/01/20 09:51:09;;;;;;;21.10;12.13;;;;;;;6.58;67.70;98546.37;264204;1092;115388;-80
2021/01/20 09:56:12;;;;;;;22.70;12.03;;;;;;;6.69;68.40;98535.20;264044;1092;114959;-80
2021/01/20 10:01:14;;;;;;;19.10;12.03;;;;;;;6.70;67.55;98535.14;263547;1092;115711;-79
2021/01/20 10:06:17;;;;;;;18.30;11.63;;;;;;;6.75;67.24;98542.81;264188;1093;114919;-79
2021/01/20 10:11:20;;;;;;;17.17;10.23;;;;;;;6.79;66.89;98525.84;264205;1092;115165;-77
2021/01/20 10:16:22;;;;;;;14.63;8.75;;;;;;;6.83;67.69;98522.11;264000;1091;115063;-77
2021/01/20 10:21:25;;;;;;;13.53;8.20;;;;;;;6.93;67.02;98517.14;264214;1091;114764;-78
2021/01/20 10:26:27;;;;;;;15.23;8.37;;;;;;;7.01;67.51;98523.72;263938;1092;114834;-78
2021/01/20 10:31:35;;;;;;;17.40;8.95;;;;;;;7.01;67.18;98510.49;264256;1092;114529;-77
2021/01/20 10:36:40;;;;;;;15.30;9.37;;;;;;;7.02;67.37;98506.91;264208;1092;114641;-77
2021/01/20 10:41:42;;;;;;;14.55;9.00;;;;;;;7.02;67.04;98503.41;264241;1090;114765;-78
2021/01/20 10:46:45;;;;;;;15.73;8.57;;;;;;;7.01;66.22;98505.20;264255;1091;114319;-82
2021/01/20 10:51:50;;;;;;;13.20;8.18;;;;;;;6.94;67.06;98487.97;264260;1092;114533;-78
2021/01/20 10:56:53;;;;;;;;;;;;;;;6.93;66.73;98495.98;264285;1093;114581;-76
2021/01/20 11:01:55;;;;;;;15.33;8.93;;;;;;;6.93;67.22;98495.98;264156;1092;104631;-74
2021/01/20 11:06:57;;;;;;;14.85;8.90;;;;;;;7.11;66.99;98485.22;264221;1092;114549;-75
2021/01/20 11:12:00;;;;;;;16.13;7.97;;;;;;;7.28;66.83;98486.06;264227;1092;114642;-77
2021/01/20 11:17:02;;;;;;;14.28;8.20;;;;;;;7.43;66.78;98477.22;264165;1092;114503;-77
2021/01/20 11:22:09;;;;;;;12.82;7.47;;;;;;;7.55;66.08;98478.31;264196;1092;114771;-76
2021/01/20 11:27:11;;;;;;;11.83;7.70;;;;;;;7.61;66.14;98466.48;264269;1092;114844;-75
2021/01/20 11:32:14;;;;;;;16.70;8.28;;;;;;;7.71;65.81;98463.23;264255;1092;115100;-76
2021/01/20 11:37:16;;;;;;;15.60;8.40;;;;;;;7.79;65.63;98453.02;264215;1091;114687;-75
2021/01/20 11:42:18;;;;;;;15.17;7.97;;;;;;;7.82;66.11;98452.83;264164;1092;114775;-76
2021/01/20 11:47:20;;;;;;;12.50;7.65;;;;;;;7.86;65.22;98455.30;264223;1091;114555;-75
2021/01/20 11:52:23;;;;;;;13.70;7.73;;;;;;;7.88;65.45;98448.97;263667;1092;114559;-75
2021/01/20 11:57:25;;;;;;;12.98;7.50;;;;;;;7.93;65.38;98444.23;264253;1092;114592;-76
2021/01/20 12:02:28;;;;;;;11.07;6.70;;;;;;;8.03;65.06;98428.63;264225;1092;115649;-80
2021/01/20 12:07:31;;;;;;;12.43;7.07;;;;;;;8.17;65.02;98433.07;264175;1091;114897;-80
2021/01/20 12:12:51;;;;;;;12.75;6.47;;;;;;;8.32;64.99;98428.60;264313;1092;114473;-80
2021/01/20 12:17:54;;;;;;;12.98;5.37;;;;;;;8.44;64.59;98425.22;264254;1092;114687;-80
2021/01/20 12:22:56;;;;;;;9.17;5.30;;;;;;;8.56;64.35;98419.16;264302;1092;114323;-75
2021/01/20 12:27:59;;;;;;;11.33;5.50;;;;;;;8.53;63.96;98411.39;264258;1091;114926;-75
2021/01/20 12:33:01;;;;;;;9.05;5.25;;;;;;;8.51;63.65;98411.47;264224;1092;115078;-75
2021/01/20 12:38:03;;;;;;;9.50;5.08;;;;;;;8.50;63.76;98406.28;264140;1091;114464;-80
2021/01/20 12:43:06;;;;;;;7.90;5.43;;;;;;;8.50;63.56;98395.67;264209;1092;114376;-79
2021/01/20 12:48:09;;;;;;;10.03;5.00;;;;;;;8.61;63.94;98385.22;264302;1092;114784;-79
2021/01/20 12:53:15;;;;;;;11.27;5.73;;;;;;;8.80;63.61;98387.54;264292;1092;114433;-80
2021/01/20 12:58:17;;;;;;;9.03;5.00;;;;;;;9.04;63.49;98387.73;263536;1091;114587;-81
2021/01/20 13:03:20;;;;;;;10.23;4.65;;;;;;;9.18;63.39;98379.69;264218;1092;114244;-81
2021/01/20 13:08:22;;;;;;;6.73;4.07;;;;;;;9.18;62.77;98382.34;264212;1092;114972;-80
2021/01/20 13:13:24;;;;;;;8.43;4.03;;;;;;;9.21;62.50;98374.17;264312;1092;114194;-83
2021/01/20 13:18:27;;;;;;;7.47;4.30;;;;;;;9.29;62.52;98380.77;263654;1092;114769;-81
2021/01/20 13:23:30;;;;;;;6.83;4.30;;;;;;;9.42;62.91;98381.65;264182;1093;114485;-81
2021/01/20 13:28:32;;;;;;;8.60;4.27;;;;;;;9.52;62.35;98376.56;263045;1092;114779;-81
2021/01/20 13:33:53;;;;;;;9.60;4.50;;;;;;;9.62;62.69;98381.14;262650;1092;115446;-80
2021/01/20 13:38:55;;;;;;;9.13;4.33;;;;;;;9.71;61.53;98383.17;261349;1092;115463;-79
2021/01/20 13:44:02;;;;;;;8.60;4.00;;;;;;;9.82;61.59;98378.92;263885;1092;114540;-77
2021/01/20 13:49:05;;;;;;;10.20;4.20;;;;;;;9.90;62.08;98369.44;262798;1092;115706;-81
2021/01/20 13:54:07;;;;;;;8.55;3.80;;;;;;;9.93;61.24;98376.35;263336;1092;114598;-79
2021/01/20 13:59:11;;;;;;;7.87;3.83;;;;;;;9.84;61.18;98376.98;263087;1092;115439;-79
2021/01/20 14:04:30;;;;;;;7.23;3.67;;;;;;;9.73;60.72;98374.23;261991;1093;114666;-75
2021/01/20 14:09:37;;;;;;;7.37;3.83;;;;;;;9.58;60.68;98381.43;262158;1093;115560;-76
2021/01/20 14:14:53;;;;;;;8.50;3.87;;;;;;;9.46;60.73;98388.45;262879;1092;114681;-76
2021/01/20 14:20:19;;;;;;;5.50;3.57;;;;;;;9.33;61.05;98393.73;262207;1092;115172;-78
2021/01/20 14:25:33;;;;;;;7.47;3.90;;;;;;;9.21;60.54;98397.23;262031;1091;115321;-83
2021/01/20 14:30:56;;;;;;;9.10;4.17;;;;;;;9.10;60.02;98395.26;262571;1092;114919;-80
2021/01/20 14:36:17;;;;;;;8.27;4.33;;;;;;;9.01;60.62;98395.89;262221;1093;114787;-80
2021/01/20 14:41:21;;;;;;;12.60;5.23;;;;;;;8.91;60.31;98397.45;262112;1092;115186;-77
2021/01/20 14:46:24;;;;;;;15.18;6.22;;;;;;;8.84;60.69;98412.91;264239;1092;114677;-76
2021/01/20 14:51:26;;;;;;;15.43;7.03;;;;;;;8.74;60.61;98419.77;263091;1092;114699;-81
2021/01/20 14:56:29;;;;;;;17.87;7.95;;;;;;;8.65;61.03;98417.70;264221;1093;114860;-78
2021/01/20 15:01:33;;;;;;;16.90;8.67;;;;;;;8.57;60.84;98418.19;263774;1092;114900;-78
2021/01/20 15:06:36;;;;;;;14.30;8.50;;;;;;;8.49;60.83;98423.12;262654;1092;114794;-76
2021/01/20 15:11:41;;;;;;;16.90;8.00;;;;;;;8.41;60.93;98426.27;263565;1092;114635;-76
2021/01/20 15:16:43;;;;;;;10.97;6.70;;;;;;;8.37;60.73;98426.53;264191;1092;114657;-73
2021/01/20 15:21:46;;;;;;;18.98;8.35;;;;;;;8.33;61.10;98423.22;264226;1092;114494;-73
2021/01/20 15:26:49;;;;;;;12.50;6.90;;;;;;;8.26;60.33;98436.00;263496;1092;114607;-73
2021/01/20 15:31:51;;;;;;;18.70;8.13;;;;;;;8.13;60.80;98440.36;264196;1092;114450;-73
2021/01/20 15:36:54;;;;;;;18.82;9.60;;;;;;;7.95;60.49;98442.34;263981;1091;114390;-79
2021/01/20 15:41:56;;;;;;;15.30;9.00;;;;;;;7.73;59.97;98449.88;264099;1092;115149;-76
2021/01/20 15:46:59;;;;;;;19.10;8.77;;;;;;;7.48;60.12;98447.84;263967;1092;114662;-79
2021/01/20 15:52:03;;;;;;;19.03;10.53;;;;;;;7.31;60.60;98452.33;262909;1093;114665;-74
2021/01/20 15:57:06;;;;;;;19.62;10.10;;;;;;;7.10;60.57;98448.28;263805;1092;115090;-78
2021/01/20 16:02:08;;;;;;;20.20;10.70;;;;;;;6.95;61.39;98443.86;263624;1092;114706;-77
2021/01/20 16:07:11;;;;;;;21.67;11.27;;;;;;;6.80;61.66;98449.08;263955;1092;114886;-78
2021/01/20 16:12:13;;;;;;;23.15;11.85;;;;;;;6.71;61.21;98444.30;264210;1091;114747;-75
2021/01/20 16:17:16;;;;;;;24.63;11.17;;;;;;;6.60;61.88;98446.69;262650;1092;115266;-81
2021/01/20 16:22:18;;;;;;;14.67;9.17;;;;;;;6.52;62.09;98438.31;261740;1092;115040;-81
2021/01/20 16:27:21;;;;;;;20.62;10.43;;;;;;;6.38;61.35;98442.56;263916;1092;114611;-81
2021/01/20 16:32:24;;;;;;;25.97;14.70;;;;;;;6.34;62.56;98448.95;264234;1092;114712;-80
2021/01/20 16:37:26;;;;;;;17.85;8.85;;;;;;;6.28;61.79;98440.51;264228;1092;114650;-79
2021/01/20 16:42:28;;;;;;;19.93;10.67;;;;;;;6.23;62.15;98443.41;264269;1092;114914;-80
2021/01/20 16:47:31;;;;;;;23.77;12.63;;;;;;;6.19;62.45;98444.52;264207;1091;114750;-80
2021/01/20 16:52:33;;;;;;;21.48;12.20;;;;;;;6.15;62.84;98441.19;264187;1092;114876;-81
2021/01/20 16:57:36;;;;;;;20.08;10.95;;;;;;;6.18;61.96;98448.08;264259;1092;114804;-79
2021/01/20 17:02:38;;;;;;;17.57;10.87;;;;;;;6.14;62.83;98449.18;263854;1092;115353;-73
2021/01/20 17:07:41;;;;;;;22.57;10.93;;;;;;;6.07;63.04;98446.02;264154;1092;114824;-74
2021/01/20 17:12:44;;;;;;;17.37;10.10;;;;;;;5.95;62.66;98440.55;264142;1092;114859;-75
2021/01/20 17:18:01;;;;;;;22.00;9.73;;;;;;;5.81;62.76;98446.50;264009;1091;114858;-78
2021/01/20 17:23:04;;;;;;;18.50;9.97;;;;;;;5.72;62.15;98452.28;264274;1092;114603;-79
2021/01/20 17:28:06;;;;;;;17.35;9.13;;;;;;;5.73;62.77;98440.77;264229;1090;114598;-81
2021/01/20 17:33:09;;;;;;;19.37;9.03;;;;;;;5.74;62.88;98435.44;264208;1092;114864;-80
2021/01/20 17:38:11;;;;;;;19.87;10.63;;;;;;;5.72;63.17;98433.80;264146;1092;114650;-80
2021/01/20 17:43:15;;;;;;;20.20;9.55;;;;;;;5.61;63.46;98434.36;264215;1090;114698;-78
2021/01/20 17:48:17;;;;;;;17.57;10.03;;;;;;;5.56;63.46;98431.09;262910;1091;114717;-72
2021/01/20 17:53:20;;;;;;;19.85;10.58;;;;;;;5.45;63.04;98424.57;264184;1092;115022;-77
2021/01/20 17:58:22;;;;;;;22.03;10.70;;;;;;;5.31;63.22;98437.62;264245;1092;114824;-78
2021/01/20 18:03:25;;;;;;;20.83;10.13;;;;;;;5.17;63.70;98440.10;264186;1092;114798;-75
2021/01/20 18:08:27;;;;;;;21.17;11.12;;;;;;;5.08;62.78;98440.55;264189;1092;114820;-75
2021/01/20 18:13:30;;;;;;;25.53;11.80;;;;;;;5.01;63.78;98444.42;264173;1092;114767;-75
2021/01/20 18:18:33;;;;;;;22.48;11.75;;;;;;;4.96;63.71;98442.02;264263;1091;114740;-75
2021/01/20 18:23:36;;;;;;;20.97;11.37;;;;;;;4.96;64.02;98444.66;264203;1092;115207;-75
2021/01/20 18:28:38;;;;;;;24.45;12.03;;;;;;;4.91;63.32;98444.86;264182;1092;115025;-77
2021/01/20 18:33:40;;;;;;;19.50;11.33;;;;;;;4.88;64.04;98436.25;263520;1091;115322;-72
2021/01/20 18:38:43;;;;;;;27.53;13.27;;;;;;;4.83;64.06;98436.48;264215;1092;114742;-74
2021/01/20 18:43:45;;;;;;;24.75;13.75;;;;;;;4.80;63.99;98441.05;263983;1092;114703;-74
2021/01/20 18:48:47;;;;;;;27.57;12.70;;;;;;;4.72;63.65;98442.27;264262;1092;114581;-75
2021/01/20 18:53:50;;;;;;;24.65;12.78;;;;;;;4.66;64.07;98431.17;263910;1092;114628;-76
2021/01/20 18:58:52;;;;;;;25.50;12.80;;;;;;;4.60;63.60;98428.82;261276;1093;114967;-75
2021/01/20 19:03:54;;;;;;;28.73;14.00;;;;;;;4.50;64.44;98428.40;263940;1092;114833;-76
2021/01/20 19:08:57;;;;;;;28.17;15.45;;;;;;;4.44;64.85;98424.27;264226;1092;114733;-75
2021/01/20 19:13:59;;;;;;;23.23;13.77;;;;;;;4.37;64.24;98432.53;264216;1092;115206;-77
2021/01/20 19:19:02;;;;;;;33.08;18.25;;;;;;;4.32;64.60;98426.64;264181;1092;114638;-75
2021/01/20 19:24:05;;;;;;;41.30;21.75;;;;;;;4.39;65.43;98421.01;264217;1092;114831;-71
2021/01/20 19:29:09;;;;;;;40.57;21.27;;;;;;;4.46;65.58;98416.30;264214;1092;114730;-73
2021/01/20 19:34:11;;;;;;;38.98;20.90;;;;;;;4.47;65.22;98415.37;263932;1093;114917;-73
2021/01/20 19:39:14;;;;;;;38.35;20.80;;;;;;;4.40;64.48;98417.44;262557;1093;115092;-77
2021/01/20 19:44:16;;;;;;;35.45;20.77;;;;;;;4.33;65.08;98423.92;264156;1093;115076;-76
2021/01/20 19:49:18;;;;;;;40.12;20.75;;;;;;;4.23;64.14;98417.38;264195;1092;114504;-75
2021/01/20 19:54:21;;;;;;;40.17;21.47;;;;;;;4.14;64.51;98421.27;264057;1092;114817;-77
2021/01/20 19:59:23;;;;;;;56.75;29.75;;;;;;;4.02;64.55;98417.44;264220;1092;114694;-75
2021/01/20 20:04:26;;;;;;;46.73;25.17;;;;;;;3.92;64.64;98413.52;264278;1092;114810;-75
2021/01/20 20:09:28;;;;;;;52.78;28.30;;;;;;;3.82;64.88;98400.84;264177;1092;115064;-75
2021/01/20 20:14:36;;;;;;;65.70;34.10;;;;;;;3.74;65.04;98406.45;264231;1092;114955;-75
2021/01/20 20:19:38;;;;;;;61.93;33.67;;;;;;;3.68;64.74;98409.35;264252;1092;114821;-75
2021/01/20 20:24:41;;;;;;;66.07;32.10;;;;;;;3.62;64.82;98402.57;263342;1092;114649;-82
2021/01/20 20:29:43;;;;;;;61.20;31.93;;;;;;;3.61;64.54;98392.13;263401;1093;114808;-77
2021/01/20 20:34:47;;;;;;;66.70;35.60;;;;;;;3.62;64.93;98399.09;263739;1092;115101;-82
2021/01/20 20:39:50;;;;;;;64.80;34.43;;;;;;;3.60;64.64;98393.03;260935;1092;115004;-83
2021/01/20 20:44:52;;;;;;;70.87;34.47;;;;;;;3.56;65.38;98398.42;263567;1092;114849;-83
2021/01/20 20:49:55;;;;;;;67.90;36.65;;;;;;;3.47;65.11;98393.59;264252;1093;114860;-83
2021/01/20 20:54:57;;;;;;;67.00;35.20;;;;;;;3.40;64.81;98394.78;263921;1092;115148;-83
2021/01/20 21:00:02;;;;;;;71.62;36.70;;;;;;;3.33;65.10;98388.08;264327;1092;114676;-75
2021/01/20 21:05:05;;;;;;;77.17;39.00;;;;;;;3.24;65.16;98391.95;264133;1092;114831;-76
2021/01/20 21:10:10;;;;;;;75.07;40.63;;;;;;;3.16;65.44;98383.55;264191;1092;115163;-76
2021/01/20 21:15:13;;;;;;;90.85;44.90;;;;;;;3.09;65.44;98379.44;264258;1092;115081;-77
2021/01/20 21:20:15;;;;;;;94.80;46.47;;;;;;;3.10;65.63;98377.69;264162;1093;114796;-76
2021/01/20 21:25:19;;;;;;;87.75;42.95;;;;;;;3.15;65.53;98376.55;263910;1091;114807;-83
2021/01/20 21:30:21;;;;;;;104.38;47.75;;;;;;;3.23;65.63;98378.88;264242;1092;114754;-83
2021/01/20 21:35:24;;;;;;;97.17;48.07;;;;;;;3.31;65.95;98361.84;264035;1093;115044;-76
2021/01/20 21:40:26;;;;;;;102.62;47.60;;;;;;;3.39;66.00;98364.13;264225;1092;115025;-76
2021/01/20 21:45:29;;;;;;;100.60;47.70;;;;;;;3.43;66.16;98375.36;263899;1093;115073;-76
2021/01/20 21:50:31;;;;;;;103.17;48.20;;;;;;;3.43;65.60;98376.24;264164;1091;115269;-76
2021/01/20 21:55:35;;;;;;;95.05;44.08;;;;;;;3.44;65.46;98369.20;264217;1093;115045;-83
2021/01/20 22:00:37;;;;;;;99.43;44.87;;;;;;;3.39;66.12;98374.64;264090;1092;115116;-83
2021/01/20 22:05:39;;;;;;;90.85;43.83;;;;;;;3.33;65.41;98367.05;264272;1090;114800;-76
2021/01/20 22:10:42;;;;;;;94.20;44.80;;;;;;;3.29;66.12;98363.70;262479;1093;114966;-76
2021/01/20 22:15:44;;;;;;;90.83;43.68;;;;;;;3.23;66.16;98363.95;264223;1092;114890;-83
2021/01/20 22:20:46;;;;;;;102.95;44.00;;;;;;;3.20;65.98;98355.34;264228;1093;114919;-76
2021/01/20 22:25:52;;;;;;;93.23;41.87;;;;;;;3.16;65.63;98351.12;263409;1092;114900;-83
2021/01/20 22:30:54;;;;;;;91.07;44.00;;;;;;;3.16;65.64;98341.48;263947;1093;115023;-83
2021/01/20 22:35:57;;;;;;;87.27;43.33;;;;;;;3.16;65.44;98335.34;263639;1092;114924;-84
2021/01/20 22:41:34;;;;;;;87.67;42.35;;;;;;;3.07;65.88;98345.34;260690;1102;104181;-68
2021/01/20 22:46:36;;;;;;;86.78;41.58;;;;;;;2.98;65.58;98326.48;260653;1104;114443;-68
2021/01/20 22:51:39;;;;;;;83.42;40.55;;;;;;;2.91;65.69;98319.78;260679;1105;114596;-68
2021/01/20 22:56:41;;;;;;;87.47;39.38;;;;;;;2.85;65.43;98326.14;260738;1105;114797;-68
2021/01/20 23:01:44;;;;;;;76.77;37.53;;;;;;;2.76;65.61;98321.30;260669;1105;115869;-68
2021/01/20 23:06:47;;;;;;;77.40;38.70;;;;;;;2.72;65.59;98315.33;260623;1103;115805;-66
2021/01/20 23:11:49;;;;;;;85.92;42.20;;;;;;;2.66;65.65;98306.84;259117;1104;114587;-68
2021/01/20 23:16:52;;;;;;;70.28;35.13;;;;;;;2.59;65.44;98303.62;260735;1105;114337;-70